^^
Station Historical Data
Daily Summary for March 22, 2017 Units:  English    Metric   Both
« Previous Day
Next Day »
Daily Weekly Monthly Yearly Custom
  High: Low: Average:
Temperature: 42.5 °F 24.1 °F 34.3 °F
Dew Point: 35.5 °F 2.7 °F 15.3 °F
Humidity: 82 % 29 % 47 %
Wind Speed: 21.4 mph 0.0 mph 8.2 mph
Wind Gust: 27.6 mph - -
Wind:- - WNW
Pressure: 30.52 in 29.91 in -
Precipitation: 0.00 in    
Historical Graphs
 
 
Tabular Data for March 22, 2017
Time Temperature Dew Point Pressure Wind Wind Speed Wind Gust Humidity Rainfall Rate (Hourly) solar Conditions
00:03 42.5 °F 35.5 °F 29.91 in Calm     76 % 0.00 in 0.0 W/m2 RA
00:08 42.0 °F 35.0 °F 29.91 in Calm     76 % 0.00 in 0.0 W/m2 RA
00:13 41.6 °F 34.9 °F 29.91 in Calm     77 % 0.00 in 0.0 W/m2 SCT
00:18 41.4 °F 35.1 °F 29.91 in Calm     78 % 0.00 in 0.0 W/m2 SCT
00:23 41.0 °F 34.7 °F 29.91 in Calm     78 % 0.00 in 0.0 W/m2 SCT
00:28 40.7 °F 34.7 °F 29.91 in Calm     79 % 0.00 in 0.0 W/m2 SCT
00:33 40.6 °F 34.9 °F 29.91 in Calm     80 % 0.00 in 0.0 W/m2 SCT
00:38 40.6 °F 34.9 °F 29.91 in Calm     80 % 0.00 in 0.0 W/m2 SCT
00:43 40.3 °F 34.6 °F 29.91 in Calm     80 % 0.00 in 0.0 W/m2 SCT
00:48 40.0 °F 34.3 °F 29.91 in Calm     80 % 0.00 in 0.0 W/m2 SCT
00:54 39.6 °F 33.9 °F 29.91 in Calm     80 % 0.00 in 0.0 W/m2 SCT
00:59 39.7 °F 33.7 °F 29.91 in Calm     79 % 0.00 in 0.0 W/m2 SCT
01:04 39.8 °F 33.8 °F 29.91 in Calm     79 % 0.00 in 0.0 W/m2 SCT
01:09 39.4 °F 33.1 °F 29.91 in Calm     78 % 0.00 in 0.0 W/m2 SCT
01:14 38.9 °F 32.6 °F 29.91 in Calm     78 % 0.00 in 0.0 W/m2 SCT
01:19 38.9 °F 32.9 °F 29.91 in Calm     79 % 0.00 in 0.0 W/m2 SCT
01:24 38.7 °F 32.7 °F 29.91 in Calm     79 % 0.00 in 0.0 W/m2 SCT
01:29 38.6 °F 32.6 °F 29.91 in Calm     79 % 0.00 in 0.0 W/m2 SCT
01:34 38.4 °F 32.5 °F 29.91 in Calm     79 % 0.00 in 0.0 W/m2 SCT
01:39 38.4 °F 32.5 °F 29.91 in Calm     79 % 0.00 in 0.0 W/m2 SCT
01:44 38.3 °F 32.4 °F 29.91 in Calm     79 % 0.00 in 0.0 W/m2 SCT
01:49 38.5 °F 32.6 °F 29.91 in Calm     79 % 0.00 in 0.0 W/m2 SCT
01:54 38.5 °F 32.6 °F 29.91 in Calm     79 % 0.00 in 0.0 W/m2 SCT
01:59 38.1 °F 32.2 °F 29.91 in Calm     79 % 0.00 in 0.0 W/m2 SCT
02:04 37.7 °F 31.8 °F 29.91 in Calm     79 % 0.00 in 0.0 W/m2 SCT
02:09 37.5 °F 31.6 °F 29.91 in Calm     79 % 0.00 in 0.0 W/m2 SCT
02:14 37.3 °F 31.7 °F 29.92 in Calm     80 % 0.00 in 0.0 W/m2 SCT
02:19 36.9 °F 31.3 °F 29.92 in Calm     80 % 0.00 in 0.0 W/m2 SCT
02:24 36.6 °F 31.3 °F 29.92 in Calm     81 % 0.00 in 0.0 W/m2 SCT
02:29 36.5 °F 31.2 °F 29.92 in Calm     81 % 0.00 in 0.0 W/m2 SCT
02:34 36.2 °F 30.9 °F 29.92 in Calm     81 % 0.00 in 0.0 W/m2 SCT
02:39 36.4 °F 31.4 °F 29.92 in Calm     82 % 0.00 in 0.0 W/m2 SCT
02:44 36.6 °F 31.6 °F 29.92 in Calm     82 % 0.00 in 0.0 W/m2 SCT
02:49 36.5 °F 31.2 °F 29.92 in Calm     81 % 0.00 in 0.0 W/m2 SCT
02:54 36.3 °F 31.3 °F 29.92 in Calm     82 % 0.00 in 0.0 W/m2 SCT
02:59 35.8 °F 30.8 °F 29.92 in Calm     82 % 0.00 in 0.0 W/m2 SCT
03:04 35.4 °F 30.5 °F 29.92 in Calm     82 % 0.00 in 0.0 W/m2 SCT
03:09 35.4 °F 30.5 °F 29.92 in Calm     82 % 0.00 in 0.0 W/m2 SCT
03:14 35.5 °F 30.5 °F 29.92 in WNW 1.2 mph 4.6 mph 82 % 0.00 in 0.0 W/m2 SCT
03:19 36.8 °F 30.6 °F 29.92 in NW 0.3 mph   78 % 0.00 in 0.0 W/m2 SCT
03:24 38.5 °F 29.9 °F 29.92 in NNW 0.3 mph 3.0 mph 71 % 0.00 in 0.0 W/m2 SCT
03:29 39.0 °F 29.0 °F 29.93 in NNW 2.2 mph 5.8 mph 67 % 0.00 in 0.0 W/m2 SCT
03:34 40.2 °F 29.4 °F 29.93 in North 4.3 mph 10.4 mph 65 % 0.00 in 0.0 W/m2 SCT
03:39 41.3 °F 29.6 °F 29.93 in NNW 3.4 mph 6.0 mph 63 % 0.00 in 0.0 W/m2 SCT
03:42 41.6 °F 28.7 °F 29.93 in NNW 5.4 mph 10.4 mph 60 % 0.00 in 0.0 W/m2 SCT
03:47 41.7 °F 28.4 °F 29.93 in NW 6.0 mph 10.4 mph 59 % 0.00 in 0.0 W/m2 SCT
03:52 41.6 °F 28.3 °F 29.94 in NNW 3.8 mph 10.4 mph 59 % 0.00 in 0.0 W/m2 SCT
03:57 41.4 °F 27.7 °F 29.94 in NNW 3.5 mph 6.0 mph 58 % 0.00 in 0.0 W/m2 SCT
04:02 41.5 °F 27.8 °F 29.94 in WNW 5.2 mph 9.2 mph 58 % 0.00 in 0.0 W/m2 SCT
04:07 41.4 °F 27.7 °F 29.94 in NW 3.3 mph 5.8 mph 58 % 0.00 in 0.0 W/m2 SCT
04:12 41.1 °F 27.4 °F 29.94 in NW 5.7 mph 9.2 mph 58 % 0.00 in 0.0 W/m2 SCT
04:18 40.8 °F 27.6 °F 29.95 in NW 3.8 mph 4.0 mph 59 % 0.00 in 0.0 W/m2 SCT
04:23 40.7 °F 27.9 °F 29.95 in NW 6.4 mph 10.4 mph 60 % 0.00 in 0.0 W/m2 SCT
04:28 40.7 °F 27.9 °F 29.96 in WNW 6.3 mph 16.1 mph 60 % 0.00 in 0.0 W/m2 SCT
04:33 40.6 °F 27.8 °F 29.96 in NW 6.8 mph 9.2 mph 60 % 0.00 in 0.0 W/m2 SCT
04:38 40.5 °F 27.7 °F 29.96 in NNW 4.7 mph 11.5 mph 60 % 0.00 in 0.0 W/m2 SCT
04:43 40.4 °F 27.6 °F 29.96 in NW 8.8 mph 12.7 mph 60 % 0.00 in 0.0 W/m2 SCT
04:48 40.4 °F 27.6 °F 29.96 in NW 6.1 mph 9.2 mph 60 % 0.00 in 0.0 W/m2 SCT
04:53 40.3 °F 27.5 °F 29.97 in West 5.2 mph 12.7 mph 60 % 0.00 in 0.0 W/m2 SCT
04:58 40.3 °F 27.1 °F 29.97 in WNW 5.5 mph 11.5 mph 59 % 0.00 in 0.0 W/m2 SCT
05:03 40.1 °F 26.9 °F 29.98 in NNW 2.2 mph 3.5 mph 59 % 0.00 in 0.0 W/m2 SCT
05:08 39.9 °F 27.1 °F 29.98 in NW 3.6 mph 10.4 mph 60 % 0.00 in 0.0 W/m2 SCT
05:13 39.7 °F 26.5 °F 29.99 in NW 5.2 mph 11.5 mph 59 % 0.00 in 0.0 W/m2 SCT
05:18 39.4 °F 26.2 °F 29.99 in NW 8.3 mph 16.1 mph 59 % 0.00 in 0.0 W/m2 SCT
05:23 39.0 °F 25.9 °F 30.00 in NNW 2.4 mph 5.0 mph 59 % 0.00 in 0.0 W/m2 SCT
05:28 38.6 °F 25.5 °F 30.00 in North 11.0 mph 16.1 mph 59 % 0.00 in 0.0 W/m2 SCT
05:33 38.3 °F 24.8 °F 30.00 in NW 6.4 mph 13.8 mph 58 % 0.00 in 0.0 W/m2 SCT
05:38 38.0 °F 24.1 °F 30.00 in NW 13.0 mph 19.6 mph 57 % 0.00 in 0.0 W/m2 SCT
05:43 37.7 °F 23.8 °F 30.01 in NW 10.4 mph 15.0 mph 57 % 0.00 in 0.0 W/m2 SCT
05:48 37.5 °F 23.6 °F 30.01 in WSW 5.8 mph 11.5 mph 57 % 0.00 in 0.0 W/m2 SCT
05:53 37.1 °F 22.8 °F 30.02 in NW 7.3 mph 11.5 mph 56 % 0.00 in 0.0 W/m2 SCT
05:58 37.0 °F 22.3 °F 30.03 in NW 9.8 mph 15.0 mph 55 % 0.00 in 0.0 W/m2 SCT
06:03 36.8 °F 21.3 °F 30.03 in NW 5.1 mph 11.0 mph 53 % 0.00 in 0.0 W/m2 SCT
06:08 36.8 °F 20.8 °F 30.03 in NW 5.3 mph 10.4 mph 52 % 0.00 in 0.0 W/m2 SCT
06:13 36.7 °F 20.7 °F 30.04 in NW 3.8 mph 10.4 mph 52 % 0.00 in 0.0 W/m2 SCT
06:19 36.5 °F 20.1 °F 30.04 in WNW 3.7 mph 11.5 mph 51 % 0.00 in 0.0 W/m2 SCT
06:24 36.5 °F 20.1 °F 30.04 in NW 4.1 mph 11.5 mph 51 % 0.00 in 0.0 W/m2 SCT
06:29 36.3 °F 20.3 °F 30.04 in North 11.5 mph 17.0 mph 52 % 0.00 in 0.0 W/m2 SCT
06:34 36.3 °F 20.3 °F 30.04 in NW 8.4 mph 12.7 mph 52 % 0.00 in 0.0 W/m2 SCT
06:39 36.2 °F 20.7 °F 30.04 in WNW 10.9 mph 15.0 mph 53 % 0.00 in 0.0 W/m2 SCT
06:44 36.2 °F 20.7 °F 30.05 in NW 11.1 mph 15.0 mph 53 % 0.00 in 0.0 W/m2 SCT
06:49 36.0 °F 21.4 °F 30.05 in WNW 13.6 mph 20.7 mph 55 % 0.00 in 0.0 W/m2 SCT
06:54 36.0 °F 21.4 °F 30.05 in WNW 10.1 mph 17.0 mph 55 % 0.00 in 0.0 W/m2 SCT
06:59 35.8 °F 21.6 °F 30.06 in WNW 12.2 mph 17.3 mph 56 % 0.00 in 0.0 W/m2 SCT
07:04 35.6 °F 21.9 °F 30.06 in NNW 16.9 mph 20.7 mph 57 % 0.00 in 5.0 W/m2 SCT
07:09 35.4 °F 22.1 °F 30.06 in NNW 14.8 mph 19.6 mph 58 % 0.00 in 7.0 W/m2 SCT
07:14 35.2 °F 21.9 °F 30.07 in NW 13.2 mph 17.3 mph 58 % 0.00 in 11.0 W/m2 SCT
07:19 35.0 °F 22.1 °F 30.08 in NW 10.9 mph 13.0 mph 59 % 0.00 in 12.0 W/m2 SCT
07:24 34.8 °F 21.9 °F 30.08 in WNW 9.6 mph 15.0 mph 59 % 0.00 in 14.0 W/m2 SCT
07:29 34.6 °F 21.7 °F 30.08 in WNW 9.1 mph 13.8 mph 59 % 0.00 in 16.0 W/m2 SCT
07:34 34.6 °F 21.7 °F 30.09 in NW 2.8 mph 6.9 mph 59 % 0.00 in 21.0 W/m2 SCT
07:39 34.6 °F 21.7 °F 30.09 in NNW 9.1 mph 15.0 mph 59 % 0.00 in 35.0 W/m2 SCT
07:44 34.5 °F 22.0 °F 30.10 in NW 12.3 mph 21.9 mph 60 % 0.00 in 39.0 W/m2 SCT
07:49 33.9 °F 21.9 °F 30.11 in NW 15.9 mph 24.2 mph 61 % 0.00 in 49.0 W/m2 FEW
07:54 33.2 °F 21.6 °F 30.12 in North 13.4 mph 19.6 mph 62 % 0.00 in 93.0 W/m2 CLR
07:59 33.1 °F 21.1 °F 30.12 in North 9.6 mph 16.1 mph 61 % 0.00 in 65.0 W/m2 FEW
08:04 33.2 °F 21.2 °F 30.12 in NNW 6.8 mph 11.5 mph 61 % 0.00 in 86.0 W/m2 FEW
08:09 33.3 °F 20.9 °F 30.13 in NW 15.5 mph 20.0 mph 60 % 0.00 in 84.0 W/m2 FEW
08:14 33.4 °F 20.2 °F 30.13 in NW 11.6 mph 13.8 mph 58 % 0.00 in 65.0 W/m2 SCT
08:19 33.6 °F 20.0 °F 30.14 in NNW 13.7 mph 21.9 mph 57 % 0.00 in 97.0 W/m2 SCT
08:24 33.6 °F 19.1 °F 30.14 in WNW 10.1 mph 20.7 mph 55 % 0.00 in 60.0 W/m2 BKN
08:29 33.3 °F 18.0 °F 30.14 in NNW 13.1 mph 20.7 mph 53 % 0.00 in 165.0 W/m2 FEW
08:34 33.3 °F 18.0 °F 30.14 in NW 12.0 mph 21.9 mph 53 % 0.00 in 121.0 W/m2 SCT
08:39 33.3 °F 16.6 °F 30.15 in NW 15.7 mph 19.6 mph 50 % 0.00 in 104.0 W/m2 SCT
08:44 33.5 °F 16.4 °F 30.15 in NNW 11.3 mph 23.0 mph 49 % 0.00 in 149.0 W/m2 FEW
08:49 33.6 °F 16.0 °F 30.15 in NW 12.6 mph 18.4 mph 48 % 0.00 in 142.0 W/m2 SCT
08:54 33.6 °F 15.5 °F 30.15 in NNW 11.3 mph 19.6 mph 47 % 0.00 in 207.0 W/m2 FEW
08:59 33.8 °F 16.2 °F 30.16 in NW 13.8 mph 19.6 mph 48 % 0.00 in 272.0 W/m2 CLR
09:04 33.7 °F 14.6 °F 30.16 in NW 17.0 mph 20.7 mph 45 % 0.00 in 278.0 W/m2 CLR
09:09 33.6 °F 14.0 °F 30.16 in NNW 11.4 mph 19.6 mph 44 % 0.00 in 223.0 W/m2 CLR
09:14 33.8 °F 14.7 °F 30.16 in NW 15.8 mph 23.0 mph 45 % 0.00 in 374.0 W/m2 CLR
09:19 33.7 °F 14.6 °F 30.16 in NW 17.9 mph 23.0 mph 45 % 0.00 in 445.0 W/m2 CLR
09:24 33.8 °F 14.7 °F 30.17 in NW 17.9 mph 27.6 mph 45 % 0.00 in 466.0 W/m2 CLR
09:29 34.1 °F 14.9 °F 30.17 in WSW 13.6 mph 19.6 mph 45 % 0.00 in 482.0 W/m2 CLR
09:34 34.2 °F 15.0 °F 30.17 in NNW 18.2 mph 19.6 mph 45 % 0.00 in 503.0 W/m2 CLR
09:39 34.3 °F 14.6 °F 30.17 in North 14.4 mph 20.7 mph 44 % 0.00 in 515.0 W/m2 CLR
09:44 34.8 °F 15.6 °F 30.18 in WNW 13.3 mph 21.0 mph 45 % 0.00 in 531.0 W/m2 CLR
09:49 34.7 °F 15.0 °F 30.18 in WNW 13.7 mph 20.7 mph 44 % 0.00 in 547.0 W/m2 CLR
09:54 34.6 °F 14.9 °F 30.18 in NNW 12.5 mph 20.0 mph 44 % 0.00 in 563.0 W/m2 CLR
09:59 34.9 °F 15.7 °F 30.18 in NW 10.0 mph 19.6 mph 45 % 0.00 in 582.0 W/m2 CLR
10:04 34.9 °F 15.7 °F 30.18 in NNW 9.1 mph 15.0 mph 45 % 0.00 in 601.0 W/m2 CLR
10:09 35.1 °F 15.3 °F 30.18 in NNW 18.0 mph 19.6 mph 44 % 0.00 in 621.0 W/m2 CLR
10:14 34.7 °F 15.0 °F 30.19 in NW 18.2 mph 25.3 mph 44 % 0.00 in 635.0 W/m2 CLR
10:19 35.0 °F 16.8 °F 30.20 in WNW 9.5 mph 15.0 mph 47 % 0.00 in 638.0 W/m2 CLR
10:24 35.1 °F 15.3 °F 30.20 in NW 12.0 mph 16.1 mph 44 % 0.00 in 679.0 W/m2 CLR
10:30 34.3 °F 15.1 °F 30.20 in NW 14.6 mph 24.2 mph 45 % 0.00 in 701.0 W/m2 CLR
10:35 34.2 °F 15.0 °F 30.20 in North 12.8 mph 17.3 mph 45 % 0.00 in 673.0 W/m2 CLR
10:40 34.1 °F 14.9 °F 30.21 in NNW 13.9 mph 26.5 mph 45 % 0.00 in 687.0 W/m2 CLR
10:45 34.7 °F 16.0 °F 30.21 in NW 9.8 mph 20.7 mph 46 % 0.00 in 696.0 W/m2 CLR
10:50 35.4 °F 15.6 °F 30.21 in NW 13.5 mph 25.0 mph 44 % 0.00 in 708.0 W/m2 CLR
10:55 35.0 °F 14.7 °F 30.21 in WNW 13.7 mph 24.2 mph 43 % 0.00 in 721.0 W/m2 CLR
11:00 34.5 °F 14.3 °F 30.22 in NW 13.5 mph 21.9 mph 43 % 0.00 in 737.0 W/m2 CLR
11:05 35.2 °F 15.4 °F 30.22 in North 11.3 mph 15.0 mph 44 % 0.00 in 744.0 W/m2 CLR
11:10 35.3 °F 15.5 °F 30.22 in WNW 13.9 mph 18.4 mph 44 % 0.00 in 763.0 W/m2 CLR
11:15 34.8 °F 14.5 °F 30.23 in North 16.8 mph 27.6 mph 43 % 0.00 in 780.0 W/m2 CLR
11:20 34.5 °F 14.8 °F 30.23 in NW 5.9 mph 18.4 mph 44 % 0.00 in 779.0 W/m2 CLR
11:25 34.7 °F 15.0 °F 30.23 in NW 16.3 mph 24.2 mph 44 % 0.00 in 784.0 W/m2 CLR
11:30 34.4 °F 13.6 °F 30.24 in NW 12.8 mph 19.6 mph 42 % 0.00 in 788.0 W/m2 CLR
11:35 34.6 °F 14.4 °F 30.24 in NW 12.9 mph 20.7 mph 43 % 0.00 in 807.0 W/m2 CLR
11:40 34.7 °F 13.9 °F 30.24 in NNW 16.6 mph 26.5 mph 42 % 0.00 in 816.0 W/m2 CLR
11:45 34.3 °F 13.0 °F 30.24 in NW 15.8 mph 26.5 mph 41 % 0.00 in 819.0 W/m2 CLR
11:50 34.5 °F 13.7 °F 30.24 in NW 14.3 mph 24.2 mph 42 % 0.00 in 823.0 W/m2 CLR
11:55 34.4 °F 13.1 °F 30.25 in NW 12.1 mph 20.7 mph 41 % 0.00 in 830.0 W/m2 CLR
12:00 34.5 °F 13.7 °F 30.25 in NW 11.2 mph 21.9 mph 42 % 0.00 in 838.0 W/m2 CLR
12:05 34.9 °F 13.5 °F 30.25 in NNW 12.1 mph 17.3 mph 41 % 0.00 in 842.0 W/m2 CLR
12:10 34.5 °F 13.2 °F 30.26 in NW 16.0 mph 19.0 mph 41 % 0.00 in 849.0 W/m2 CLR
12:15 34.5 °F 11.5 °F 30.25 in WNW 16.4 mph 25.3 mph 38 % 0.00 in 846.0 W/m2 CLR
12:20 34.9 °F 13.0 °F 30.26 in NNE 13.4 mph 18.4 mph 40 % 0.00 in 849.0 W/m2 CLR
12:25 34.9 °F 12.4 °F 30.26 in NW 13.1 mph 21.9 mph 39 % 0.00 in 853.0 W/m2 CLR
12:30 34.5 °F 11.5 °F 30.26 in West 10.3 mph 21.9 mph 38 % 0.00 in 858.0 W/m2 CLR
12:35 35.2 °F 12.1 °F 30.26 in NW 9.7 mph 16.0 mph 38 % 0.00 in 863.0 W/m2 CLR
12:40 36.1 °F 12.9 °F 30.26 in NW 13.8 mph 19.0 mph 38 % 0.00 in 861.0 W/m2 CLR
12:45 35.6 °F 11.9 °F 30.26 in WNW 7.9 mph 17.3 mph 37 % 0.00 in 868.0 W/m2 CLR
12:50 35.4 °F 11.1 °F 30.26 in NE 12.3 mph 21.0 mph 36 % 0.00 in 865.0 W/m2 CLR
12:55 35.1 °F 12.0 °F 30.27 in NNW 9.8 mph 13.8 mph 38 % 0.00 in 865.0 W/m2 CLR
13:00 35.6 °F 11.9 °F 30.27 in North 9.6 mph 16.1 mph 37 % 0.00 in 867.0 W/m2 CLR
13:05 35.5 °F 12.4 °F 30.27 in NNW 12.3 mph 17.0 mph 38 % 0.00 in 865.0 W/m2 CLR
13:10 35.5 °F 11.8 °F 30.28 in NW 11.0 mph 19.6 mph 37 % 0.00 in 870.0 W/m2 CLR
13:16 35.1 °F 12.0 °F 30.27 in North 12.0 mph 13.8 mph 38 % 0.00 in 867.0 W/m2 CLR
13:21 35.5 °F 12.4 °F 30.28 in NW 10.9 mph 21.0 mph 38 % 0.00 in 865.0 W/m2 CLR
13:26 35.3 °F 11.0 °F 30.28 in NNW 7.1 mph 12.7 mph 36 % 0.00 in 863.0 W/m2 CLR
13:31 35.1 °F 11.4 °F 30.28 in North 17.3 mph 20.7 mph 37 % 0.00 in 861.0 W/m2 CLR
13:36 34.7 °F 11.0 °F 30.28 in NNW 19.0 mph 26.5 mph 37 % 0.00 in 860.0 W/m2 CLR
13:41 34.5 °F 10.2 °F 30.28 in NNW 21.4 mph 26.5 mph 36 % 0.00 in 860.0 W/m2 CLR
13:46 34.7 °F 10.4 °F 30.28 in WNW 16.5 mph 25.3 mph 36 % 0.00 in 854.0 W/m2 CLR
13:51 34.6 °F 10.3 °F 30.28 in NW 15.9 mph 25.3 mph 36 % 0.00 in 847.0 W/m2 CLR
13:56 34.6 °F 9.7 °F 30.28 in WNW 15.0 mph 24.2 mph 35 % 0.00 in 844.0 W/m2 CLR
14:01 35.2 °F 10.9 °F 30.28 in WNW 17.0 mph 23.0 mph 36 % 0.00 in 842.0 W/m2 CLR
14:06 35.0 °F 10.1 °F 30.28 in NNW 15.7 mph 21.0 mph 35 % 0.00 in 837.0 W/m2 CLR
14:11 34.7 °F 10.4 °F 30.28 in NW 17.8 mph 24.0 mph 36 % 0.00 in 826.0 W/m2 CLR
14:16 34.8 °F 9.9 °F 30.28 in WNW 12.6 mph 21.0 mph 35 % 0.00 in 819.0 W/m2 CLR
14:21 35.4 °F 11.1 °F 30.28 in WNW 18.3 mph 27.6 mph 36 % 0.00 in 816.0 W/m2 CLR
14:26 35.2 °F 10.2 °F 30.28 in NNW 17.5 mph 27.0 mph 35 % 0.00 in 812.0 W/m2 CLR
14:31 35.4 °F 10.4 °F 30.28 in NW 17.2 mph 23.0 mph 35 % 0.00 in 800.0 W/m2 CLR
14:36 35.0 °F 9.4 °F 30.28 in NW 18.0 mph 26.5 mph 34 % 0.00 in 791.0 W/m2 CLR
14:41 35.3 °F 11.0 °F 30.28 in NNW 9.2 mph 16.1 mph 36 % 0.00 in 782.0 W/m2 CLR
14:46 35.3 °F 10.3 °F 30.28 in NNW 16.7 mph 23.0 mph 35 % 0.00 in 773.0 W/m2 CLR
14:51 35.4 °F 10.4 °F 30.28 in NNW 10.4 mph 15.0 mph 35 % 0.00 in 763.0 W/m2 CLR
14:56 35.8 °F 11.4 °F 30.28 in NNW 12.0 mph 19.6 mph 36 % 0.00 in 752.0 W/m2 CLR
15:01 35.3 °F 10.3 °F 30.28 in NNW 9.4 mph 19.6 mph 35 % 0.00 in 747.0 W/m2 CLR
15:06 35.5 °F 10.5 °F 30.28 in NW 13.2 mph 19.6 mph 35 % 0.00 in 735.0 W/m2 CLR
15:11 35.9 °F 10.2 °F 30.29 in NNW 11.5 mph 21.9 mph 34 % 0.00 in 724.0 W/m2 CLR
15:16 35.3 °F 9.0 °F 30.29 in NNW 8.8 mph 21.9 mph 33 % 0.00 in 710.0 W/m2 CLR
15:18 35.2 °F 9.6 °F 30.29 in NNW 9.2 mph 19.0 mph 34 % 0.00 in 708.0 W/m2 CLR
15:22 35.3 °F 9.7 °F 30.29 in NW 7.1 mph 15.0 mph 34 % 0.00 in 700.0 W/m2 CLR
15:25 35.9 °F 9.5 °F 30.29 in WNW 11.0 mph 18.4 mph 33 % 0.00 in 691.0 W/m2 CLR
15:28 36.2 °F 10.5 °F 30.29 in NNW 10.1 mph 19.6 mph 34 % 0.00 in 686.0 W/m2 CLR
15:29 36.2 °F 10.5 °F 30.30 in North 5.7 mph 15.0 mph 34 % 0.00 in 682.0 W/m2 CLR
15:30 36.0 °F 9.6 °F 30.29 in NNE 11.5 mph 19.6 mph 33 % 0.00 in 677.0 W/m2 CLR
15:34 35.7 °F 10.0 °F 30.29 in North 10.4 mph 19.6 mph 34 % 0.00 in 671.0 W/m2 CLR
15:37 35.8 °F 9.5 °F 30.30 in WNW 11.6 mph 17.3 mph 33 % 0.00 in 664.0 W/m2 CLR
15:39 35.8 °F 9.5 °F 30.30 in NNW 12.2 mph 26.5 mph 33 % 0.00 in 659.0 W/m2 CLR
15:44 35.5 °F 9.2 °F 30.30 in NW 15.2 mph 21.9 mph 33 % 0.00 in 645.0 W/m2 CLR
15:49 35.8 °F 9.5 °F 30.30 in NNW 10.5 mph 16.1 mph 33 % 0.00 in 631.0 W/m2 CLR
15:54 35.4 °F 7.7 °F 30.31 in NW 14.4 mph 17.3 mph 31 % 0.00 in 615.0 W/m2 CLR
15:57 35.5 °F 8.5 °F 30.31 in WNW 9.4 mph 14.0 mph 32 % 0.00 in 606.0 W/m2 CLR
16:00 35.7 °F 8.0 °F 30.31 in North 10.5 mph 15.0 mph 31 % 0.00 in 596.0 W/m2 CLR
16:03 36.0 °F 8.9 °F 30.31 in NW 13.4 mph 18.4 mph 32 % 0.00 in 587.0 W/m2 CLR
16:05 35.7 °F 8.0 °F 30.31 in NW 10.9 mph 15.0 mph 31 % 0.00 in 584.0 W/m2 CLR
16:15 35.5 °F 7.8 °F 30.31 in NNW 13.1 mph 19.6 mph 31 % 0.00 in 555.0 W/m2 CLR
16:20 35.3 °F 7.6 °F 30.31 in NW 8.4 mph 13.8 mph 31 % 0.00 in 541.0 W/m2 CLR
16:25 35.4 °F 9.1 °F 30.31 in NW 8.9 mph 16.1 mph 33 % 0.00 in 526.0 W/m2 CLR
16:30 35.2 °F 7.5 °F 30.32 in North 4.9 mph 11.5 mph 31 % 0.00 in 508.0 W/m2 CLR
16:34 35.3 °F 7.6 °F 30.32 in NW 8.4 mph 17.3 mph 31 % 0.00 in 497.0 W/m2 CLR
16:35 35.5 °F 7.8 °F 30.31 in NNW 9.4 mph 13.0 mph 31 % 0.00 in 492.0 W/m2 CLR
16:40 35.6 °F 7.9 °F 30.31 in North 8.1 mph 11.5 mph 31 % 0.00 in 476.0 W/m2 CLR
16:45 35.5 °F 7.1 °F 30.32 in NNW 16.8 mph 26.5 mph 30 % 0.00 in 459.0 W/m2 CLR
16:50 34.9 °F 7.3 °F 30.32 in NW 11.2 mph 19.6 mph 31 % 0.00 in 441.0 W/m2 CLR
16:55 34.8 °F 5.7 °F 30.33 in NNW 11.0 mph 20.7 mph 29 % 0.00 in 422.0 W/m2 CLR
17:00 34.6 °F 5.5 °F 30.32 in NNW 11.4 mph 17.3 mph 29 % 0.00 in 403.0 W/m2 CLR
17:05 34.6 °F 6.3 °F 30.33 in NW 10.3 mph 20.7 mph 30 % 0.00 in 388.0 W/m2 CLR
17:08 34.7 °F 7.8 °F 30.33 in North 7.1 mph 14.0 mph 32 % 0.00 in 380.0 W/m2 CLR
17:09 34.8 °F 7.9 °F 30.33 in North 11.0 mph 16.0 mph 32 % 0.00 in 378.0 W/m2 CLR
17:10 34.6 °F 6.3 °F 30.33 in North 8.8 mph 17.3 mph 30 % 0.00 in 373.0 W/m2 CLR
17:15 34.5 °F 6.2 °F 30.33 in NW 9.6 mph 18.4 mph 30 % 0.00 in 353.0 W/m2 CLR
17:20 35.0 °F 6.6 °F 30.33 in NNW 6.7 mph 11.5 mph 30 % 0.00 in 338.0 W/m2 CLR
17:25 34.8 °F 5.7 °F 30.34 in NW 15.0 mph 18.4 mph 29 % 0.00 in 318.0 W/m2 CLR
17:30 34.6 °F 5.5 °F 30.34 in NW 6.0 mph 15.0 mph 29 % 0.00 in 301.0 W/m2 CLR
17:35 34.2 °F 6.7 °F 30.34 in NW 6.9 mph 13.8 mph 31 % 0.00 in 279.0 W/m2 CLR
17:41 33.9 °F 7.1 °F 30.34 in North 6.4 mph 16.1 mph 32 % 0.00 in 262.0 W/m2 CLR
17:46 33.4 °F 6.7 °F 30.35 in North 8.4 mph 15.0 mph 32 % 0.00 in 241.0 W/m2 CLR
17:51 33.1 °F 5.7 °F 30.35 in NNW 7.8 mph 12.7 mph 31 % 0.00 in 218.0 W/m2 CLR
17:56 33.1 °F 6.4 °F 30.35 in North 12.7 mph 12.7 mph 32 % 0.00 in 195.0 W/m2 CLR
18:01 33.1 °F 5.7 °F 30.36 in North 8.0 mph 12.7 mph 31 % 0.00 in 176.0 W/m2 CLR
18:06 33.1 °F 6.4 °F 30.36 in NNW 5.1 mph 10.4 mph 32 % 0.00 in 151.0 W/m2 CLR
18:11 33.0 °F 5.6 °F 30.36 in North 11.2 mph 17.3 mph 31 % 0.00 in 130.0 W/m2 CLR
18:16 32.8 °F 6.1 °F 30.37 in NNW 10.0 mph 17.3 mph 32 % 0.00 in 111.0 W/m2 FEW
18:21 32.7 °F 6.7 °F 30.37 in NNE 3.9 mph 9.2 mph 33 % 0.00 in 93.0 W/m2 FEW
18:26 32.3 °F 5.7 °F 30.37 in North 5.0 mph 10.4 mph 32 % 0.00 in 76.0 W/m2 FEW
18:31 32.2 °F 5.6 °F 30.38 in NNW 4.0 mph 9.2 mph 32 % 0.00 in 58.0 W/m2 SCT
18:36 32.2 °F 5.6 °F 30.38 in North 8.6 mph 11.5 mph 32 % 0.00 in 42.0 W/m2 SCT
18:41 31.9 °F 4.6 °F 30.38 in NW 9.9 mph 13.8 mph 31 % 0.00 in 32.0 W/m2 BKN
18:46 31.5 °F 4.3 °F 30.39 in NNW 10.0 mph 18.4 mph 31 % 0.00 in 25.0 W/m2 BKN
18:51 31.2 °F 4.0 °F 30.39 in NW 6.1 mph 11.5 mph 31 % 0.00 in 21.0 W/m2 BKN
18:56 31.0 °F 3.8 °F 30.39 in North 10.5 mph 16.1 mph 31 % 0.00 in 18.0 W/m2 BKN
19:01 30.8 °F 4.4 °F 30.39 in North 6.3 mph 10.4 mph 32 % 0.00 in 14.0 W/m2 SCT
19:06 30.7 °F 4.9 °F 30.40 in NNW 5.6 mph 9.2 mph 33 % 0.00 in 11.0 W/m2 SCT
19:11 30.4 °F 4.0 °F 30.40 in North 9.6 mph 17.0 mph 32 % 0.00 in 9.0 W/m2 CLR
19:16 30.2 °F 4.5 °F 30.41 in North 5.1 mph 9.2 mph 33 % 0.00 in 5.0 W/m2 CLR
19:21 29.9 °F 3.6 °F 30.41 in NW 7.6 mph 11.5 mph 32 % 0.00 in 0.0 W/m2 CLR
19:26 29.6 °F 4.0 °F 30.41 in North 4.4 mph 10.4 mph 33 % 0.00 in 0.0 W/m2 CLR
19:31 29.4 °F 3.8 °F 30.41 in NNW 6.6 mph 13.8 mph 33 % 0.00 in 0.0 W/m2 CLR
19:36 29.4 °F 3.1 °F 30.42 in North 9.5 mph 17.3 mph 32 % 0.00 in 0.0 W/m2 CLR
19:41 29.3 °F 3.7 °F 30.42 in NNW 4.0 mph 10.0 mph 33 % 0.00 in 0.0 W/m2 CLR
19:46 29.2 °F 4.3 °F 30.42 in NNW 1.5 mph 5.8 mph 34 % 0.00 in 0.0 W/m2 CLR
19:51 29.0 °F 4.1 °F 30.42 in NNW 4.3 mph 9.2 mph 34 % 0.00 in 0.0 W/m2 CLR
19:56 28.9 °F 3.4 °F 30.43 in NNW 1.9 mph 3.5 mph 33 % 0.00 in 0.0 W/m2 CLR
20:01 28.7 °F 3.2 °F 30.43 in North 7.7 mph 12.7 mph 33 % 0.00 in 0.0 W/m2 CLR
20:06 28.6 °F 3.1 °F 30.43 in North 6.7 mph 10.4 mph 33 % 0.00 in 0.0 W/m2 CLR
20:11 28.4 °F 2.9 °F 30.44 in NW 6.9 mph 9.2 mph 33 % 0.00 in 0.0 W/m2 CLR
20:16 28.2 °F 3.4 °F 30.44 in NNW 3.9 mph 10.4 mph 34 % 0.00 in 0.0 W/m2 CLR
20:21 28.1 °F 3.3 °F 30.44 in NW 4.7 mph 8.1 mph 34 % 0.00 in 0.0 W/m2 CLR
20:26 28.1 °F 3.3 °F 30.45 in NNW 3.7 mph 9.2 mph 34 % 0.00 in 0.0 W/m2 CLR
20:31 28.0 °F 3.2 °F 30.45 in NNW 9.9 mph 13.8 mph 34 % 0.00 in 0.0 W/m2 CLR
20:36 27.9 °F 3.1 °F 30.45 in NNW 3.1 mph 9.2 mph 34 % 0.00 in 0.0 W/m2 CLR
20:41 27.9 °F 3.1 °F 30.45 in NNW 9.1 mph 11.5 mph 34 % 0.00 in 0.0 W/m2 CLR
20:42 27.8 °F 3.0 °F 30.45 in NNW 7.2 mph 14.0 mph 34 % 0.00 in 0.0 W/m2 CLR
20:47 27.8 °F 3.0 °F 30.45 in North 4.0 mph 11.5 mph 34 % 0.00 in 0.0 W/m2 CLR
20:52 27.7 °F 2.9 °F 30.46 in NNW 8.4 mph 12.7 mph 34 % 0.00 in 0.0 W/m2 CLR
20:57 27.6 °F 2.8 °F 30.46 in NNW 6.4 mph 11.5 mph 34 % 0.00 in 0.0 W/m2 CLR
21:02 27.6 °F 3.5 °F 30.46 in North 5.1 mph 7.0 mph 35 % 0.00 in 0.0 W/m2 CLR
21:12 27.3 °F 3.8 °F 30.46 in North 3.0 mph 5.0 mph 36 % 0.00 in 0.0 W/m2 CLR
21:17 27.1 °F 3.6 °F 30.46 in North 2.8 mph 8.1 mph 36 % 0.00 in 0.0 W/m2 CLR
21:22 27.0 °F 3.5 °F 30.46 in NNW 5.3 mph 11.5 mph 36 % 0.00 in 0.0 W/m2 CLR
21:27 26.9 °F 3.5 °F 30.47 in NNW 6.8 mph 11.5 mph 36 % 0.00 in 0.0 W/m2 CLR
21:32 26.7 °F 2.7 °F 30.47 in NNW 9.8 mph 14.0 mph 35 % 0.00 in 0.0 W/m2 CLR
21:37 26.7 °F 3.3 °F 30.47 in NW 8.0 mph 16.0 mph 36 % 0.00 in 0.0 W/m2 CLR
21:42 26.4 °F 3.0 °F 30.47 in North 6.9 mph 12.7 mph 36 % 0.00 in 0.0 W/m2 CLR
21:47 26.4 °F 3.0 °F 30.47 in NW 12.4 mph 13.8 mph 36 % 0.00 in 0.0 W/m2 CLR
21:52 26.3 °F 2.9 °F 30.48 in NNW 10.5 mph 16.1 mph 36 % 0.00 in 0.0 W/m2 CLR
21:57 26.2 °F 3.4 °F 30.48 in North 3.1 mph 13.0 mph 37 % 0.00 in 0.0 W/m2 CLR
22:02 26.1 °F 2.7 °F 30.48 in NNW 6.9 mph 11.5 mph 36 % 0.00 in 0.0 W/m2 CLR
22:07 25.9 °F 3.2 °F 30.48 in NNW 9.1 mph 10.4 mph 37 % 0.00 in 0.0 W/m2 CLR
22:12 25.8 °F 3.6 °F 30.49 in NW 5.1 mph 9.2 mph 38 % 0.00 in 0.0 W/m2 CLR
22:17 25.7 °F 3.6 °F 30.49 in North 5.2 mph 10.4 mph 38 % 0.00 in 0.0 W/m2 CLR
22:22 25.6 °F 4.0 °F 30.49 in NW 0.6 mph 3.5 mph 39 % 0.00 in 0.0 W/m2 CLR
22:27 25.6 °F 4.0 °F 30.50 in NNW 2.2 mph 4.6 mph 39 % 0.00 in 0.0 W/m2 CLR
22:32 25.5 °F 3.4 °F 30.50 in NW 9.1 mph 15.0 mph 38 % 0.00 in 0.0 W/m2 CLR
22:37 25.4 °F 3.8 °F 30.50 in NNW 3.4 mph 5.8 mph 39 % 0.00 in 0.0 W/m2 CLR
22:47 25.4 °F 4.4 °F 30.50 in North 6.8 mph 9.2 mph 40 % 0.00 in 0.0 W/m2 CLR
22:52 25.2 °F 4.2 °F 30.50 in North 1.7 mph 8.1 mph 40 % 0.00 in 0.0 W/m2 CLR
22:57 25.2 °F 4.8 °F 30.50 in NW 2.9 mph 9.2 mph 41 % 0.00 in 0.0 W/m2 CLR
23:03 25.0 °F 4.6 °F 30.50 in NW 5.9 mph 8.0 mph 41 % 0.00 in 0.0 W/m2 CLR
23:08 25.0 °F 5.1 °F 30.51 in NNW 2.4 mph 11.5 mph 42 % 0.00 in 0.0 W/m2 CLR
23:18 24.9 °F 5.5 °F 30.51 in NW 3.6 mph 3.6 mph 43 % 0.00 in 0.0 W/m2 CLR
23:23 24.7 °F 5.3 °F 30.51 in NNW 6.8 mph 11.5 mph 43 % 0.00 in 0.0 W/m2 CLR
23:28 24.6 °F 5.3 °F 30.51 in NW 8.9 mph 11.5 mph 43 % 0.00 in 0.0 W/m2 CLR
23:33 24.6 °F 5.8 °F 30.51 in NNW 8.9 mph 14.0 mph 44 % 0.00 in 0.0 W/m2 CLR
23:38 24.5 °F 5.7 °F 30.51 in NW 2.1 mph 5.8 mph 44 % 0.00 in 0.0 W/m2 CLR
23:43 24.4 °F 5.6 °F 30.52 in NNW 1.6 mph 3.5 mph 44 % 0.00 in 0.0 W/m2 CLR
23:48 24.3 °F 6.0 °F 30.52 in NNW 3.1 mph 6.0 mph 45 % 0.00 in 0.0 W/m2 CLR
23:53 24.1 °F 5.8 °F 30.52 in NNW 2.9 mph 5.8 mph 45 % 0.00 in 0.0 W/m2 CLR
23:58 24.1 °F 6.3 °F 30.52 in NNW 3.4 mph 5.8 mph 46 % 0.00 in 0.0 W/m2 CLR
Air Products Campus Weather
Compliments of Weather Underground - 3.5 mb